Tappan, New York
Current Conditions -  °F | °C
As of 8:56 PM on Friday 28 Nov 2014 (Local Time) from KHPN Reporting Station
Clear Clear  
Wind Chill: -8°   Ceiling: Unl
Heat Index: -3°   Visibility: 10mi
Dew Point: -11°   Wind: 8mph
Humidity: 55%   Direction: 310°NW
Pressure: 30.23"   Gusts: NA
Location:  41.02°N, 73.95°W
Report Text: KHPN 290156Z 31007KT 10SM CLR M03/M11 A3023 RMK AO2 SLP247 T10331111
Loading
Personal Weather Stations






























Interactive Weather Map New forecast layout! Learn more

10-Day Weather Forecast

Advertisements
Track Severe Weather on mobile